createdAt,value
2018-09-09T00:00:08.337Z,99.90
2018-09-09T00:02:36.666Z,99.90
2018-09-09T00:05:05.329Z,99.90
2018-09-09T00:07:33.686Z,99.90
2018-09-09T00:10:02.014Z,99.90
2018-09-09T00:12:30.366Z,99.90
2018-09-09T00:14:58.677Z,99.90
2018-09-09T00:17:27.002Z,99.90
2018-09-09T00:19:55.305Z,99.90
2018-09-09T00:22:23.633Z,99.90
2018-09-09T00:24:51.944Z,99.90
2018-09-09T00:27:20.280Z,99.90
2018-09-09T00:29:48.585Z,99.90
2018-09-09T00:32:16.910Z,99.90
2018-09-09T00:34:45.219Z,99.90
2018-09-09T00:37:13.570Z,99.90
2018-09-09T00:39:41.894Z,99.90
2018-09-09T00:42:10.215Z,99.90
2018-09-09T00:44:38.538Z,99.90
2018-09-09T00:47:06.919Z,99.90
2018-09-09T00:49:40.762Z,99.90
2018-09-09T00:52:14.519Z,99.90
2018-09-09T00:54:42.858Z,99.90
2018-09-09T00:57:11.163Z,99.90
2018-09-09T00:59:39.495Z,99.90
2018-09-09T01:02:07.793Z,99.90
2018-09-09T01:04:36.117Z,99.90
2018-09-09T01:07:04.446Z,99.90
2018-09-09T01:09:34.441Z,99.90
2018-09-09T01:12:04.130Z,99.90
2018-09-09T01:14:33.051Z,99.90
2018-09-09T01:17:01.361Z,99.90
2018-09-09T01:19:29.702Z,99.90
2018-09-09T01:21:58.019Z,99.90
2018-09-09T01:24:26.343Z,99.90
2018-09-09T01:26:54.902Z,99.90
2018-09-09T01:29:23.506Z,99.90
2018-09-09T01:31:51.818Z,99.90
2018-09-09T01:34:20.149Z,99.90
2018-09-09T01:36:48.454Z,99.90
2018-09-09T01:39:16.777Z,99.90
2018-09-09T01:41:45.082Z,99.90
2018-09-09T01:44:13.427Z,99.90
2018-09-09T01:46:41.738Z,99.90
2018-09-09T01:49:10.075Z,99.90
2018-09-09T01:51:38.386Z,99.90
2018-09-09T01:54:06.890Z,99.90
2018-09-09T01:56:35.194Z,99.90
2018-09-09T01:59:03.522Z,99.90
2018-09-09T02:01:31.818Z,99.90
2018-09-09T02:04:00.137Z,99.90
2018-09-09T02:06:28.441Z,99.90
2018-09-09T02:08:56.775Z,99.90
2018-09-09T02:11:25.083Z,99.90
2018-09-09T02:13:53.858Z,99.90
2018-09-09T02:16:22.191Z,99.90
2018-09-09T02:18:50.502Z,99.90
2018-09-09T02:21:18.829Z,99.90
2018-09-09T02:23:47.135Z,99.90
2018-09-09T02:26:15.478Z,99.90
2018-09-09T02:28:43.790Z,99.90
2018-09-09T02:31:12.120Z,99.90
2018-09-09T02:33:40.433Z,99.90
2018-09-09T02:36:08.766Z,99.90
2018-09-09T02:38:37.079Z,99.90
2018-09-09T02:41:05.734Z,99.90
2018-09-09T02:43:34.045Z,99.90
2018-09-09T02:46:02.367Z,99.90
2018-09-09T02:48:30.685Z,99.90
2018-09-09T02:50:59.001Z,99.90
2018-09-09T02:53:27.328Z,99.90
2018-09-09T02:55:55.655Z,99.90
2018-09-09T02:58:23.966Z,99.90
2018-09-09T03:00:52.342Z,99.90
2018-09-09T03:03:20.642Z,99.90
2018-09-09T03:05:48.965Z,99.90
2018-09-09T03:08:17.279Z,99.90
2018-09-09T03:10:45.630Z,99.90
2018-09-09T03:13:13.942Z,99.90
2018-09-09T03:15:42.271Z,99.90
2018-09-09T03:18:11.358Z,99.90
2018-09-09T03:20:39.678Z,99.90
2018-09-09T03:23:07.989Z,99.90
2018-09-09T03:25:36.314Z,99.90
2018-09-09T03:28:04.642Z,99.90
2018-09-09T03:30:32.967Z,99.90
2018-09-09T03:33:01.263Z,99.90
2018-09-09T03:35:29.591Z,99.90
2018-09-09T03:37:57.897Z,99.90
2018-09-09T03:40:26.238Z,99.90
2018-09-09T03:42:54.546Z,99.90
2018-09-09T03:45:22.845Z,99.90
2018-09-09T03:47:51.194Z,99.90
2018-09-09T03:50:19.499Z,99.90
2018-09-09T03:52:47.844Z,99.90
2018-09-09T03:55:16.170Z,99.90
2018-09-09T03:57:44.494Z,99.90
2018-09-09T04:00:12.795Z,99.90
2018-09-09T04:02:41.118Z,99.90
2018-09-09T04:05:09.421Z,99.90
2018-09-09T04:07:37.865Z,99.90
2018-09-09T04:10:06.632Z,99.90
2018-09-09T04:12:34.933Z,99.90
2018-09-09T04:15:03.232Z,99.90
2018-09-09T04:17:31.563Z,99.90
2018-09-09T04:19:59.958Z,99.90
2018-09-09T04:22:28.278Z,99.90
2018-09-09T04:24:56.574Z,99.90
2018-09-09T04:27:24.911Z,99.90
2018-09-09T04:29:53.205Z,99.90
2018-09-09T04:32:21.518Z,99.90
2018-09-09T04:34:49.821Z,99.90
2018-09-09T04:37:18.162Z,99.90
2018-09-09T04:39:46.484Z,99.90
2018-09-09T04:42:14.814Z,99.90
2018-09-09T04:44:43.118Z,99.90
2018-09-09T04:47:11.446Z,99.90
2018-09-09T04:49:39.747Z,99.90
2018-09-09T04:52:08.070Z,99.90
2018-09-09T04:54:36.367Z,99.90
2018-09-09T04:57:05.424Z,99.90
2018-09-09T04:59:33.731Z,99.90
2018-09-09T05:02:02.055Z,99.90
2018-09-09T05:04:30.366Z,99.90
2018-09-09T05:06:58.689Z,99.90
2018-09-09T05:09:26.990Z,99.90
2018-09-09T05:11:55.309Z,99.90
2018-09-09T05:14:23.622Z,99.90
2018-09-09T05:16:51.946Z,99.90
2018-09-09T05:19:20.246Z,99.90
2018-09-09T05:21:48.561Z,99.90
2018-09-09T05:24:16.866Z,99.90
2018-09-09T05:26:45.198Z,99.90
2018-09-09T05:29:13.541Z,99.90
2018-09-09T05:31:41.871Z,99.90
2018-09-09T05:34:10.170Z,99.90
2018-09-09T05:36:38.495Z,99.90
2018-09-09T05:39:09.042Z,99.90
2018-09-09T05:41:37.370Z,99.90
2018-09-09T05:44:05.707Z,99.90
2018-09-09T05:46:34.020Z,99.90
2018-09-09T05:49:02.505Z,99.90
2018-09-09T05:51:30.839Z,99.90
2018-09-09T05:53:59.238Z,99.90
2018-09-09T05:56:27.502Z,99.90
2018-09-09T05:58:55.841Z,99.90
2018-09-09T06:01:24.202Z,99.90
2018-09-09T06:03:52.560Z,99.90
2018-09-09T06:06:20.866Z,99.90
2018-09-09T06:08:49.190Z,99.90
2018-09-09T06:11:17.503Z,99.90
2018-09-09T06:13:45.826Z,99.90
2018-09-09T06:16:14.125Z,99.90
2018-09-09T06:18:42.450Z,99.90
2018-09-09T06:21:10.759Z,99.90
2018-09-09T06:23:39.094Z,99.90
2018-09-09T06:26:07.398Z,99.90
2018-09-09T06:28:35.727Z,99.90
2018-09-09T06:31:04.041Z,99.90
2018-09-09T06:33:32.408Z,99.90
2018-09-09T06:36:00.697Z,99.90
2018-09-09T06:38:29.022Z,99.90
2018-09-09T06:40:57.377Z,99.90
2018-09-09T06:43:25.698Z,99.90
2018-09-09T06:45:54.001Z,99.90
2018-09-09T06:48:22.326Z,99.90
2018-09-09T06:50:50.634Z,99.90
2018-09-09T06:53:18.953Z,99.90
2018-09-09T06:55:47.272Z,99.90
2018-09-09T06:58:15.599Z,99.90
2018-09-09T07:00:43.918Z,99.90
2018-09-09T07:03:12.250Z,99.90
2018-09-09T07:05:40.557Z,99.90
2018-09-09T07:08:08.881Z,99.90
2018-09-09T07:10:37.202Z,99.90
2018-09-09T07:13:05.539Z,99.90
2018-09-09T07:15:33.866Z,99.90
2018-09-09T07:18:02.205Z,99.90
2018-09-09T07:20:30.507Z,99.90
2018-09-09T07:22:58.835Z,99.90
2018-09-09T07:25:27.142Z,99.90
2018-09-09T07:27:55.486Z,99.90
2018-09-09T07:30:23.785Z,99.90
2018-09-09T07:32:52.091Z,99.90
2018-09-09T07:35:20.419Z,99.90
2018-09-09T07:37:48.730Z,99.90
2018-09-09T07:40:17.053Z,99.90
2018-09-09T07:42:45.366Z,99.90
2018-09-09T07:45:13.691Z,99.90
2018-09-09T07:47:41.994Z,99.90
2018-09-09T07:50:10.365Z,99.90
2018-09-09T07:52:38.673Z,99.90
2018-09-09T07:55:07.038Z,99.90
2018-09-09T07:57:35.350Z,99.90
2018-09-09T08:00:03.902Z,99.90
2018-09-09T08:02:32.206Z,99.90
2018-09-09T08:05:00.543Z,99.90
2018-09-09T08:07:28.850Z,99.90
2018-09-09T08:09:57.182Z,99.90
2018-09-09T08:12:25.489Z,99.90
2018-09-09T08:14:53.813Z,99.90
2018-09-09T08:17:22.126Z,99.90
2018-09-09T08:19:50.450Z,99.90
2018-09-09T08:22:18.794Z,99.90
2018-09-09T08:24:47.135Z,99.90
2018-09-09T08:27:15.447Z,99.90
2018-09-09T08:29:43.778Z,99.90
2018-09-09T08:32:12.090Z,99.90
2018-09-09T08:34:40.577Z,99.90
2018-09-09T08:37:08.886Z,99.90
2018-09-09T08:39:37.218Z,99.90
2018-09-09T08:42:05.535Z,99.90
2018-09-09T08:44:33.865Z,99.90
2018-09-09T08:47:02.178Z,99.90
2018-09-09T08:49:30.505Z,99.90
2018-09-09T08:51:58.915Z,99.90
2018-09-09T08:54:27.178Z,99.90
2018-09-09T08:56:55.502Z,99.90
2018-09-09T08:59:23.826Z,99.90
2018-09-09T09:01:52.125Z,99.90
2018-09-09T09:04:20.455Z,99.90
2018-09-09T09:06:48.791Z,99.90
2018-09-09T09:09:17.118Z,99.90
2018-09-09T09:11:45.428Z,99.90
2018-09-09T09:14:13.764Z,99.90
2018-09-09T09:16:42.075Z,99.90
2018-09-09T09:19:10.422Z,99.90
2018-09-09T09:21:39.038Z,99.90
2018-09-09T09:24:07.493Z,99.90
2018-09-09T09:26:35.990Z,99.90
2018-09-09T09:29:04.314Z,99.90
2018-09-09T09:31:32.647Z,99.90
2018-09-09T09:34:00.953Z,99.90
2018-09-09T09:36:29.270Z,99.90
2018-09-09T09:38:57.602Z,99.90
2018-09-09T09:41:25.950Z,99.90
2018-09-09T09:43:54.307Z,99.90
2018-09-09T09:46:22.646Z,99.90
2018-09-09T09:48:50.954Z,99.90
2018-09-09T09:51:19.334Z,99.90
2018-09-09T09:53:47.659Z,99.90
2018-09-09T09:56:15.991Z,99.90
2018-09-09T09:58:44.306Z,99.90
2018-09-09T10:01:12.630Z,99.90
2018-09-09T10:03:41.071Z,99.90
2018-09-09T10:06:09.289Z,99.90
2018-09-09T10:08:37.617Z,98.10
2018-09-09T10:11:06.390Z,98.10
2018-09-09T10:13:34.703Z,97.10
2018-09-09T10:16:03.035Z,97.00
2018-09-09T10:18:31.353Z,92.30
2018-09-09T10:20:59.706Z,93.00
2018-09-09T10:23:28.006Z,93.40
2018-09-09T10:25:56.330Z,93.50
2018-09-09T10:28:24.642Z,92.60
2018-09-09T10:30:53.107Z,91.80
2018-09-09T10:33:21.415Z,91.80
2018-09-09T10:35:49.742Z,91.30
2018-09-09T10:38:18.054Z,90.60
2018-09-09T10:40:46.400Z,89.80
2018-09-09T10:43:14.734Z,90.50
2018-09-09T10:45:43.068Z,87.00
2018-09-09T10:48:11.386Z,83.50
2018-09-09T10:50:39.714Z,85.90
2018-09-09T10:53:08.089Z,86.70
2018-09-09T10:55:36.379Z,87.90
2018-09-09T10:58:04.805Z,79.80
2018-09-09T11:00:34.264Z,78.30
2018-09-09T11:03:02.578Z,79.60
2018-09-09T11:05:30.903Z,80.10
2018-09-09T11:07:59.215Z,80.50
2018-09-09T11:10:27.518Z,79.60
2018-09-09T11:12:55.873Z,77.40
2018-09-09T11:15:24.182Z,71.50
2018-09-09T11:17:52.546Z,73.00
2018-09-09T11:20:20.858Z,77.70
2018-09-09T11:22:49.185Z,72.80
2018-09-09T11:25:17.495Z,72.40
2018-09-09T11:27:45.834Z,69.30
2018-09-09T11:30:14.186Z,66.50
2018-09-09T11:32:42.515Z,64.20
2018-09-09T11:35:10.834Z,59.50
2018-09-09T11:37:39.182Z,58.90
2018-09-09T11:40:07.606Z,62.70
2018-09-09T11:42:35.958Z,60.20
2018-09-09T11:45:04.475Z,59.10
2018-09-09T11:47:32.802Z,57.00
2018-09-09T11:50:01.115Z,55.00
2018-09-09T11:52:29.693Z,54.50
2018-09-09T11:54:58.035Z,52.60
2018-09-09T11:57:26.419Z,54.10
2018-09-09T11:59:54.758Z,52.90
2018-09-09T12:02:23.119Z,52.60
2018-09-09T12:04:51.427Z,49.30
2018-09-09T12:07:19.800Z,49.40
2018-09-09T12:09:48.216Z,49.40
2018-09-09T12:12:16.826Z,48.30
2018-09-09T12:14:45.153Z,48.00
2018-09-09T12:17:13.493Z,48.70
2018-09-09T12:19:41.802Z,46.70
2018-09-09T12:22:10.138Z,47.20
2018-09-09T12:24:38.450Z,44.30
2018-09-09T12:27:06.789Z,43.30
2018-09-09T12:29:35.105Z,47.30
2018-09-09T12:32:03.472Z,46.40
2018-09-09T12:34:31.775Z,46.80
2018-09-09T12:37:00.106Z,47.60
2018-09-09T12:39:28.462Z,49.30
2018-09-09T12:41:56.802Z,46.40
2018-09-09T12:45:32.050Z,45.10
2018-09-09T12:48:05.743Z,43.50
2018-09-09T12:50:34.074Z,43.90
2018-09-09T12:53:02.402Z,45.00
2018-09-09T12:55:30.730Z,45.80
2018-09-09T12:57:59.054Z,45.70
2018-09-09T13:00:27.393Z,44.10
2018-09-09T13:02:55.711Z,45.40
2018-09-09T13:05:24.039Z,45.80
2018-09-09T13:07:52.382Z,43.00
2018-09-09T13:10:20.690Z,43.40
2018-09-09T13:12:54.530Z,43.10
2018-09-09T13:15:23.054Z,42.60
2018-09-09T13:17:51.398Z,44.60
2018-09-09T13:20:19.917Z,45.00
2018-09-09T13:22:49.134Z,45.60
2018-09-09T13:25:17.448Z,46.00
2018-09-09T13:27:45.765Z,45.50
2018-09-09T13:30:14.070Z,47.50
2018-09-09T13:32:42.424Z,49.60
2018-09-09T13:35:10.735Z,50.30
2018-09-09T13:37:39.058Z,49.80
2018-09-09T13:40:07.387Z,49.60
2018-09-09T13:42:35.739Z,50.10
2018-09-09T13:45:04.086Z,50.60
2018-09-09T13:47:32.414Z,51.40
2018-09-09T13:50:00.757Z,51.90
2018-09-09T13:52:29.122Z,52.50
2018-09-09T13:54:57.434Z,50.90
2018-09-09T13:57:25.743Z,56.00
2018-09-09T13:59:54.082Z,53.20
2018-09-09T14:02:22.398Z,53.90
2018-09-09T14:04:50.723Z,53.20
2018-09-09T14:07:19.302Z,52.10
2018-09-09T14:09:47.635Z,51.70
2018-09-09T14:12:15.945Z,51.20
2018-09-09T14:14:44.450Z,49.40
2018-09-09T14:17:12.774Z,50.90
2018-09-09T14:19:41.133Z,51.40
2018-09-09T14:22:09.491Z,49.60
2018-09-09T14:24:37.785Z,51.70
2018-09-09T14:27:06.094Z,51.00
2018-09-09T14:29:34.434Z,51.90
2018-09-09T14:32:02.734Z,51.70
2018-09-09T14:34:31.067Z,51.30
2018-09-09T14:36:59.374Z,52.90
2018-09-09T14:39:27.700Z,53.30
2018-09-09T14:41:56.018Z,54.10
2018-09-09T14:44:24.370Z,54.80
2018-09-09T14:46:52.733Z,55.60
2018-09-09T14:49:21.053Z,52.10
2018-09-09T14:51:49.391Z,54.20
2018-09-09T14:54:17.710Z,52.20
2018-09-09T14:56:46.010Z,55.60
2018-09-09T14:59:14.350Z,52.90
2018-09-09T15:01:42.676Z,55.10
2018-09-09T15:04:11.103Z,55.60
2018-09-09T15:06:39.426Z,54.70
2018-09-09T15:09:08.978Z,53.50
2018-09-09T15:11:37.274Z,54.50
2018-09-09T15:14:05.631Z,53.50
2018-09-09T15:16:33.951Z,53.90
2018-09-09T15:19:02.310Z,56.10
2018-09-09T15:21:30.614Z,53.90
2018-09-09T15:23:58.954Z,54.40
2018-09-09T15:26:27.283Z,54.60
2018-09-09T15:28:55.771Z,56.00
2018-09-09T15:31:23.970Z,57.30
2018-09-09T15:33:52.562Z,55.80
2018-09-09T15:36:20.866Z,55.70
2018-09-09T15:38:49.199Z,55.10
2018-09-09T15:41:17.653Z,57.90
2018-09-09T15:43:45.986Z,57.30
2018-09-09T15:46:14.290Z,58.00
2018-09-09T15:48:42.609Z,55.50
2018-09-09T15:51:11.082Z,59.00
2018-09-09T15:53:39.407Z,57.50
2018-09-09T15:56:07.730Z,58.90
2018-09-09T15:58:36.047Z,58.10
2018-09-09T16:01:04.360Z,57.80
2018-09-09T16:03:32.686Z,60.10
2018-09-09T16:06:01.072Z,57.90
2018-09-09T16:08:29.400Z,56.90
2018-09-09T16:10:57.710Z,58.60
2018-09-09T16:13:26.046Z,58.90
2018-09-09T16:15:54.354Z,60.00
2018-09-09T16:18:22.682Z,59.90
2018-09-09T16:20:50.982Z,60.60
2018-09-09T16:23:19.418Z,58.00
2018-09-09T16:25:47.766Z,58.50
2018-09-09T16:28:16.077Z,62.10
2018-09-09T16:30:44.437Z,61.20
2018-09-09T16:33:12.728Z,67.10
2018-09-09T16:35:41.047Z,64.10
2018-09-09T16:38:09.358Z,65.20
2018-09-09T16:40:37.684Z,68.60
2018-09-09T16:43:06.518Z,66.90
2018-09-09T16:45:34.879Z,66.50
2018-09-09T16:48:03.213Z,69.40
2018-09-09T16:50:31.538Z,66.90
2018-09-09T16:52:59.959Z,69.70
2018-09-09T16:55:28.422Z,69.90
2018-09-09T16:57:56.773Z,67.50
2018-09-09T17:00:25.736Z,73.40
2018-09-09T17:02:54.055Z,72.80
2018-09-09T17:05:22.382Z,74.50
2018-09-09T17:07:52.063Z,75.70
2018-09-09T17:10:20.402Z,75.10
2018-09-09T17:12:48.719Z,74.30
2018-09-09T17:15:17.043Z,76.40
2018-09-09T17:17:45.454Z,75.00
2018-09-09T17:20:13.947Z,75.40
2018-09-09T17:22:42.249Z,75.90
2018-09-09T17:25:10.583Z,80.00
2018-09-09T17:27:38.888Z,81.80
2018-09-09T17:30:07.239Z,81.60
2018-09-09T17:32:35.546Z,83.90
2018-09-09T17:35:03.889Z,85.30
2018-09-09T17:37:32.198Z,89.80
2018-09-09T17:40:00.680Z,90.90
2018-09-09T17:42:28.981Z,91.50
2018-09-09T17:44:57.345Z,94.90
2018-09-09T17:47:25.658Z,95.30
2018-09-09T17:49:54.062Z,97.60
2018-09-09T17:52:22.422Z,99.30
2018-09-09T17:54:50.742Z,99.90
2018-09-09T17:57:19.042Z,99.90
2018-09-09T17:59:47.391Z,99.90
2018-09-09T18:02:15.701Z,99.90
2018-09-09T18:04:44.022Z,99.90
2018-09-09T18:07:12.330Z,99.90
2018-09-09T18:09:41.390Z,99.90
2018-09-09T18:12:09.706Z,99.90
2018-09-09T18:14:38.142Z,99.90
2018-09-09T18:17:06.470Z,99.90
2018-09-09T18:19:34.782Z,99.90
2018-09-09T18:22:03.127Z,99.90
2018-09-09T18:24:31.435Z,99.90
2018-09-09T18:26:59.778Z,99.90
2018-09-09T18:29:28.146Z,99.90
2018-09-09T18:31:58.414Z,99.90
2018-09-09T18:34:26.718Z,99.90
2018-09-09T18:36:55.054Z,99.90
2018-09-09T18:39:23.370Z,99.90
2018-09-09T18:41:51.710Z,99.90
2018-09-09T18:44:20.018Z,99.90
2018-09-09T18:46:48.386Z,99.90
2018-09-09T18:49:16.750Z,99.90
2018-09-09T18:51:45.118Z,99.90
2018-09-09T18:54:13.421Z,99.90
2018-09-09T18:56:41.783Z,99.90
2018-09-09T18:59:10.184Z,99.90
2018-09-09T19:01:38.543Z,99.90
2018-09-09T19:04:06.866Z,99.90
2018-09-09T19:06:35.266Z,99.90
2018-09-09T19:09:03.818Z,99.90
2018-09-09T19:11:32.335Z,99.90
2018-09-09T19:14:00.711Z,99.90
2018-09-09T19:16:29.058Z,99.90
2018-09-09T19:18:57.371Z,99.90
2018-09-09T19:21:26.147Z,99.90
2018-09-09T19:23:54.391Z,99.90
2018-09-09T19:26:22.766Z,99.90
2018-09-09T19:28:51.128Z,99.90
2018-09-09T19:31:19.510Z,99.90
2018-09-09T19:33:47.814Z,99.90
2018-09-09T19:36:16.188Z,99.90
2018-09-09T19:38:44.501Z,99.90
2018-09-09T19:41:12.872Z,99.90
2018-09-09T19:43:41.174Z,99.90
2018-09-09T19:46:13.076Z,99.90
2018-09-09T19:48:42.274Z,99.90
2018-09-09T19:51:10.758Z,99.90
2018-09-09T19:53:39.214Z,99.90
2018-09-09T19:56:07.574Z,99.90
2018-09-09T19:58:35.896Z,99.90
2018-09-09T20:01:04.731Z,99.90
2018-09-09T20:03:33.070Z,99.90
2018-09-09T20:06:01.382Z,99.90
2018-09-09T20:08:29.705Z,99.90
2018-09-09T20:10:58.014Z,99.90
2018-09-09T20:13:26.342Z,99.90
2018-09-09T20:15:54.751Z,99.90
2018-09-09T20:18:23.062Z,99.90
2018-09-09T20:20:51.390Z,99.90
2018-09-09T20:23:19.875Z,99.90
2018-09-09T20:25:49.264Z,99.90
2018-09-09T20:28:17.606Z,99.90
2018-09-09T20:30:45.910Z,99.90
2018-09-09T20:33:14.236Z,99.90
2018-09-09T20:35:42.542Z,99.90
2018-09-09T20:38:10.867Z,99.90
2018-09-09T20:40:39.201Z,99.90
2018-09-09T20:43:07.620Z,99.90
2018-09-09T20:45:35.918Z,99.90
2018-09-09T20:48:04.286Z,99.90
2018-09-09T20:50:32.598Z,99.90
2018-09-09T20:53:00.922Z,99.90
2018-09-09T20:55:29.233Z,99.90
2018-09-09T20:57:57.570Z,99.90
2018-09-09T21:00:25.889Z,99.90
2018-09-09T21:02:54.214Z,99.90
2018-09-09T21:05:22.524Z,99.90
2018-09-09T21:07:50.983Z,99.90
2018-09-09T21:10:19.315Z,99.90
2018-09-09T21:12:47.689Z,99.90
2018-09-09T21:15:16.018Z,99.90
2018-09-09T21:17:44.363Z,99.90
2018-09-09T21:20:12.710Z,99.90
2018-09-09T21:22:41.013Z,99.90
2018-09-09T21:25:09.346Z,99.90
2018-09-09T21:27:37.649Z,99.90
2018-09-09T21:30:06.893Z,99.90
2018-09-09T21:32:35.197Z,99.90
2018-09-09T21:35:03.605Z,99.90
2018-09-09T21:37:31.902Z,99.90
2018-09-09T21:40:00.227Z,99.90
2018-09-09T21:42:28.534Z,99.90
2018-09-09T21:44:56.861Z,99.90
2018-09-09T21:47:25.190Z,99.90
2018-09-09T21:49:53.692Z,99.90
2018-09-09T21:52:22.010Z,99.90
2018-09-09T21:54:50.331Z,99.90
2018-09-09T21:57:18.638Z,99.90
2018-09-09T21:59:46.974Z,99.90
2018-09-09T22:02:15.269Z,99.90
2018-09-09T22:04:43.596Z,99.90
2018-09-09T22:07:13.178Z,99.90
2018-09-09T22:09:42.690Z,99.90
2018-09-09T22:12:11.773Z,99.90
2018-09-09T22:14:40.583Z,99.90
2018-09-09T22:17:10.438Z,99.90
2018-09-09T22:19:38.794Z,99.90
2018-09-09T22:22:07.102Z,99.90
2018-09-09T22:24:35.425Z,99.90
2018-09-09T22:27:03.736Z,99.90
2018-09-09T22:29:32.178Z,99.90
2018-09-09T22:32:00.490Z,99.90
2018-09-09T22:34:28.818Z,99.90
2018-09-09T22:36:57.190Z,99.90
2018-09-09T22:39:25.510Z,99.90
2018-09-09T22:41:53.809Z,99.90
2018-09-09T22:44:22.131Z,99.90
2018-09-09T22:46:50.440Z,99.90
2018-09-09T22:49:18.798Z,99.90
2018-09-09T22:51:47.105Z,99.90
2018-09-09T22:54:15.429Z,99.90
2018-09-09T22:56:43.737Z,99.90
2018-09-09T22:59:12.054Z,99.90
2018-09-09T23:01:40.357Z,99.90
2018-09-09T23:04:08.694Z,99.90
2018-09-09T23:06:36.998Z,99.90
2018-09-09T23:09:07.986Z,99.90
2018-09-09T23:11:36.366Z,99.90
2018-09-09T23:14:04.678Z,99.90
2018-09-09T23:16:33.005Z,99.90
2018-09-09T23:19:01.349Z,99.90
2018-09-09T23:21:29.753Z,99.90
2018-09-09T23:23:58.215Z,99.90
2018-09-09T23:26:26.541Z,99.90
2018-09-09T23:28:54.842Z,99.90
2018-09-09T23:31:23.174Z,99.90
2018-09-09T23:33:51.490Z,99.90
2018-09-09T23:36:19.817Z,99.90
2018-09-09T23:38:48.123Z,99.90
2018-09-09T23:41:16.462Z,99.90
2018-09-09T23:43:44.774Z,99.90
2018-09-09T23:46:13.093Z,99.90
2018-09-09T23:48:41.438Z,99.90
2018-09-09T23:51:09.774Z,99.90
2018-09-09T23:53:38.078Z,99.90
2018-09-09T23:56:06.402Z,99.90
2018-09-09T23:58:34.724Z,99.90
